createdAt,value
2022-12-11T12:49:52.036Z,3.0
2022-12-11T13:00:54.694Z,6.4
2022-12-11T13:05:58.646Z,27.8
2022-12-11T13:11:45.197Z,28.9
2022-12-11T13:20:10.787Z,33.2
2022-12-11T13:25:02.061Z,31.7
2022-12-11T13:30:05.662Z,31.9
2022-12-11T13:35:00.590Z,32.3
2022-12-11T13:40:04.409Z,32.5
2022-12-11T13:45:01.228Z,31.9
2022-12-11T13:50:00.603Z,31.4
2022-12-11T13:55:01.306Z,30.6
2022-12-11T14:00:01.026Z,28.7
2022-12-11T14:05:03.295Z,39.8
2022-12-11T14:10:04.453Z,38.5
2022-12-11T14:15:02.065Z,38.1
2022-12-11T14:20:03.406Z,36.7
2022-12-11T14:25:15.720Z,36.2
2022-12-11T14:30:08.906Z,35.2
2022-12-11T14:35:03.664Z,34.2
2022-12-11T14:40:00.639Z,32.9
2022-12-11T15:05:17.843Z,30.4
2022-12-11T15:11:05.809Z,28.7
2022-12-11T15:16:13.172Z,30.9
2022-12-11T15:21:03.885Z,30.8
2022-12-11T15:26:01.563Z,32.9
2022-12-11T15:31:03.833Z,33.8
2022-12-11T15:36:04.294Z,35.4
2022-12-11T15:41:17.693Z,34.6
2022-12-11T15:46:03.570Z,35.4
2022-12-11T15:51:01.471Z,33.6
2022-12-11T15:56:01.626Z,33.8
2022-12-11T16:01:01.065Z,32.9
2022-12-11T16:06:01.037Z,33.0
2022-12-11T16:11:01.513Z,32.1
2022-12-11T16:16:01.749Z,38.5
2022-12-11T16:21:01.105Z,39.4
2022-12-11T16:26:01.039Z,41.2
2022-12-11T16:31:01.096Z,41.9
2022-12-11T16:36:01.078Z,45.2
2022-12-11T16:41:07.844Z,40.0
2022-12-11T16:46:01.110Z,39.8
2022-12-11T16:51:01.181Z,39.7
2022-12-11T17:01:01.072Z,38.4
2022-12-11T17:06:04.430Z,39.5
2022-12-11T17:11:01.046Z,42.2
2022-12-11T17:16:01.132Z,42.8
2022-12-11T17:21:01.096Z,49.3
2022-12-11T17:26:01.054Z,45.2
2022-12-11T17:31:02.625Z,44.6
2022-12-11T17:36:01.054Z,41.0
2022-12-11T17:41:01.099Z,40.8
2022-12-11T17:47:03.609Z,34.0
2022-12-11T17:52:01.047Z,39.1
2022-12-11T17:57:06.642Z,36.8
2022-12-11T18:02:08.307Z,37.6
2022-12-11T18:07:07.670Z,39.1
2022-12-11T18:12:01.056Z,43.9
2022-12-11T18:17:01.139Z,45.8
2022-12-11T18:22:01.680Z,47.0
2022-12-11T18:27:01.049Z,47.7
2022-12-11T18:32:01.136Z,44.2
2022-12-11T18:37:01.068Z,41.0
2022-12-11T18:42:31.036Z,38.8
2022-12-11T18:47:01.055Z,41.1
2022-12-11T18:52:01.106Z,39.8
2022-12-11T18:57:01.066Z,41.4
2022-12-11T19:02:01.868Z,42.1
2022-12-11T19:07:01.140Z,40.6
2022-12-11T19:12:01.048Z,39.9
2022-12-11T19:17:01.468Z,40.3
2022-12-11T19:22:01.088Z,40.4
2022-12-11T19:27:01.048Z,38.4
2022-12-11T19:32:01.050Z,38.3
2022-12-11T19:37:01.063Z,36.4
2022-12-11T19:42:01.084Z,35.9
2022-12-11T19:47:01.794Z,34.5
2022-12-11T19:52:01.071Z,35.8
2022-12-11T19:57:01.062Z,37.0
2022-12-11T20:02:01.174Z,36.3
2022-12-11T20:07:01.586Z,36.7
2022-12-11T20:12:01.200Z,38.0
2022-12-11T20:17:11.256Z,35.6
2022-12-11T20:22:01.146Z,34.4
2022-12-11T20:27:01.059Z,34.2
2022-12-11T20:32:01.132Z,34.1
2022-12-11T20:37:11.094Z,33.6
2022-12-11T20:47:01.355Z,30.1
2022-12-11T20:52:01.090Z,32.4
2022-12-11T20:57:01.139Z,34.1
2022-12-11T21:02:01.223Z,34.4
2022-12-11T21:07:01.519Z,36.1
2022-12-11T21:12:01.085Z,41.5
2022-12-11T21:17:06.476Z,40.3
2022-12-11T21:22:01.108Z,37.9
2022-12-11T21:27:01.070Z,37.5
2022-12-11T21:32:01.159Z,36.3
2022-12-11T21:37:01.099Z,34.4
2022-12-11T21:42:01.338Z,34.8
2022-12-11T21:48:01.064Z,36.1
2022-12-11T21:58:01.110Z,35.4
2022-12-11T22:03:01.154Z,37.7
2022-12-11T22:08:02.955Z,39.0
2022-12-11T22:13:01.106Z,37.3
2022-12-11T22:18:01.048Z,36.5
2022-12-11T22:23:01.113Z,37.1
2022-12-11T22:28:01.057Z,35.9
2022-12-11T22:33:01.166Z,34.0
2022-12-11T22:38:01.073Z,34.7
2022-12-11T22:43:07.069Z,36.5
2022-12-11T22:48:01.089Z,38.0
2022-12-11T22:53:01.658Z,36.3
2022-12-11T22:58:01.075Z,36.1
2022-12-11T23:03:01.148Z,37.4
2022-12-11T23:08:00.759Z,56.2
2022-12-11T23:13:00.607Z,45.4
2022-12-11T23:18:00.591Z,41.4
2022-12-11T23:23:00.657Z,39.3
2022-12-11T23:28:18.557Z,37.8
2022-12-11T23:33:00.643Z,30.1
2022-12-11T23:38:00.603Z,31.5
2022-12-11T23:43:00.720Z,31.7
2022-12-11T23:48:00.599Z,31.6
2022-12-11T23:53:00.613Z,32.9
2022-12-11T23:58:00.626Z,34.9
